Time;durP1;ratioP1;P1;durP2;ratioP2;P2;SDS_P1;SDS_P2;PMS_P1;PMS_P2;Temp;Humidity;BMP_temperature;BMP_pressure;BME280_temperature;BME280_humidity;BME280_pressure;Samples;Min_cycle;Max_cycle;Signal;HPM_P1;HPM_P2
2022/11/27 00:00:08;;;;;;;4.14;3.52;;;;;;;5.73;75.11;101602.78;466707;114;922202;-77
2022/11/27 00:01:16;;;;;;;3.64;3.34;;;;;;;5.74;75.10;101606.34;466554;114;922535;-76
2022/11/27 00:02:19;;;;;;;3.66;3.36;;;;;;;5.72;75.08;101609.23;465439;114;922285;-78
2022/11/27 00:03:23;;;;;;;4.17;3.78;;;;;;;5.74;75.15;101609.05;462140;115;922145;-77
2022/11/27 00:04:26;;;;;;;3.93;3.62;;;;;;;5.72;75.09;101603.81;462193;115;922137;-78
2022/11/27 00:05:30;;;;;;;3.54;3.29;;;;;;;5.72;75.08;101605.67;462120;115;930083;-77
2022/11/27 00:06:34;;;;;;;3.93;3.63;;;;;;;5.72;75.00;101605.67;462302;113;922345;-77
2022/11/27 00:07:37;;;;;;;4.19;3.83;;;;;;;5.72;75.08;101603.81;462099;115;922045;-77
2022/11/27 00:08:41;;;;;;;3.88;3.34;;;;;;;5.72;74.86;101609.23;462187;115;921987;-77
2022/11/27 00:09:45;;;;;;;3.83;3.53;;;;;;;5.70;74.79;101610.38;462230;115;922105;-78
2022/11/27 00:10:48;;;;;;;4.01;3.59;;;;;;;5.69;74.84;101609.53;462185;115;922011;-77
2022/11/27 00:11:51;;;;;;;3.92;3.59;;;;;;;5.68;74.82;101605.12;462289;113;922583;-77
2022/11/27 00:12:55;;;;;;;4.30;3.56;;;;;;;5.67;74.97;101606.15;460542;115;922110;-77
2022/11/27 00:13:58;;;;;;;3.67;3.44;;;;;;;5.68;74.86;101607.82;459122;116;922566;-77
2022/11/27 00:15:02;;;;;;;3.18;2.98;;;;;;;5.68;74.90;101607.00;459078;116;922050;-77
2022/11/27 00:16:06;;;;;;;3.88;3.62;;;;;;;5.67;74.74;101611.56;458997;116;922201;-78
2022/11/27 00:17:10;;;;;;;3.92;3.62;;;;;;;5.64;74.78;101614.56;459001;116;922177;-77
2022/11/27 00:18:13;;;;;;;4.44;3.75;;;;;;;5.64;74.80;101613.71;458690;116;922800;-77
2022/11/27 00:19:16;;;;;;;3.58;3.22;;;;;;;5.64;74.80;101616.41;458615;116;922181;-78
2022/11/27 00:20:19;;;;;;;4.17;3.81;;;;;;;5.64;74.80;101619.13;458685;116;922224;-77
2022/11/27 00:21:26;;;;;;;4.01;3.64;;;;;;;5.65;74.90;101615.41;458682;116;922469;-78
2022/11/27 00:22:29;;;;;;;3.93;3.69;;;;;;;5.65;74.88;101618.97;458446;116;922047;-78
2022/11/27 00:23:33;;;;;;;3.19;2.99;;;;;;;5.67;74.87;101619.67;459450;115;922670;-78
2022/11/27 00:24:37;;;;;;;3.65;3.43;;;;;;;5.67;74.87;101619.67;461753;115;922764;-77
2022/11/27 00:25:42;;;;;;;3.71;3.47;;;;;;;5.68;75.04;101612.41;461752;115;929988;-77
2022/11/27 00:26:45;;;;;;;3.96;3.66;;;;;;;5.69;74.96;101609.53;461598;113;930093;-77
2022/11/27 00:27:48;;;;;;;3.43;3.13;;;;;;;5.70;74.88;101615.78;461939;115;922171;-77
2022/11/27 00:28:52;;;;;;;3.93;3.58;;;;;;;5.69;74.93;101611.38;461852;115;922120;-75
2022/11/27 00:29:55;;;;;;;4.17;3.89;;;;;;;5.69;74.96;101609.53;461084;115;922428;-77
2022/11/27 00:31:05;;;;;;;4.04;3.69;;;;;;;5.70;74.87;101616.64;461087;115;930321;-77
2022/11/27 00:32:08;;;;;;;3.61;3.36;;;;;;;5.70;74.89;101613.08;460937;113;922485;-78
2022/11/27 00:33:12;;;;;;;3.90;3.60;;;;;;;5.70;74.84;101615.78;461099;115;923186;-78
2022/11/27 00:34:15;;;;;;;3.63;3.33;;;;;;;5.69;74.84;101609.53;460999;115;922452;-77
2022/11/27 00:35:18;;;;;;;3.29;3.09;;;;;;;5.69;74.72;101608.67;461076;115;922823;-78
2022/11/27 00:36:22;;;;;;;3.94;3.64;;;;;;;5.69;74.67;101608.67;461048;115;922647;-77
2022/11/27 00:37:25;;;;;;;4.13;3.83;;;;;;;5.67;74.54;101611.56;460976;113;922496;-78
2022/11/27 00:38:28;;;;;;;3.67;3.43;;;;;;;5.65;74.65;101612.71;461044;115;922595;-78
2022/11/27 00:39:31;;;;;;;4.13;3.79;;;;;;;5.65;74.70;101612.71;461057;115;922510;-78
2022/11/27 00:40:35;;;;;;;3.92;3.63;;;;;;;5.64;74.68;101603.74;460961;115;923169;-78
2022/11/27 00:41:38;;;;;;;3.63;3.36;;;;;;;5.62;74.48;101605.78;460967;113;930490;-77
2022/11/27 00:42:41;;;;;;;3.81;3.52;;;;;;;5.61;74.49;101609.48;460901;115;922935;-78
2022/11/27 00:43:45;;;;;;;3.66;3.36;;;;;;;5.58;74.49;101607.08;461038;115;922471;-77
2022/11/27 00:44:48;;;;;;;3.82;3.52;;;;;;;5.59;74.57;101607.92;460970;115;922945;-77
2022/11/27 00:45:51;;;;;;;4.05;3.74;;;;;;;5.59;74.62;101610.63;461090;115;922476;-79
2022/11/27 00:46:54;;;;;;;4.11;3.81;;;;;;;5.59;74.56;101611.48;461022;113;922496;-79
2022/11/27 00:47:57;;;;;;;3.09;2.89;;;;;;;5.57;74.60;101610.78;461062;115;922600;-77
2022/11/27 00:49:04;;;;;;;3.58;3.26;;;;;;;5.58;74.75;101604.37;461028;115;922510;-77
2022/11/27 00:50:08;;;;;;;3.16;2.96;;;;;;;5.59;74.77;101614.19;460871;115;923340;-77
2022/11/27 00:51:14;;;;;;;3.47;3.07;;;;;;;5.61;74.74;101612.19;460950;115;922567;-78
2022/11/27 00:52:17;;;;;;;3.48;3.20;;;;;;;5.61;74.76;101609.48;460815;113;922463;-78
2022/11/27 00:53:20;;;;;;;3.31;3.08;;;;;;;5.63;74.74;101604.74;461027;115;922957;-78
2022/11/27 00:54:23;;;;;;;3.33;2.79;;;;;;;5.64;74.84;101613.71;461037;115;922513;-78
2022/11/27 00:55:26;;;;;;;3.30;3.10;;;;;;;5.65;74.69;101610.00;461035;115;922911;-77
2022/11/27 00:56:33;;;;;;;3.70;3.43;;;;;;;5.66;74.77;101609.86;461043;113;922851;-76
2022/11/27 00:57:36;;;;;;;3.91;3.62;;;;;;;5.65;74.65;101605.45;460751;113;922567;-77
2022/11/27 00:58:39;;;;;;;3.70;3.46;;;;;;;5.67;74.67;101606.15;460970;115;922572;-76
2022/11/27 00:59:42;;;;;;;3.59;3.39;;;;;;;5.68;74.60;101609.70;460944;115;922504;-78
2022/11/27 01:00:45;;;;;;;4.33;4.01;;;;;;;5.68;74.59;101610.53;460976;115;922691;-77
2022/11/27 01:01:49;;;;;;;4.36;4.06;;;;;;;5.69;74.58;101604.11;460948;113;922557;-79
2022/11/27 01:02:52;;;;;;;4.42;4.12;;;;;;;5.70;74.55;101613.08;461424;114;922566;-77
2022/11/27 01:03:57;;;;;;;4.22;3.94;;;;;;;5.70;74.53;101611.23;462809;114;922989;-76
2022/11/27 01:05:00;;;;;;;4.63;4.33;;;;;;;5.70;74.45;101613.08;462668;114;922598;-77
2022/11/27 01:06:05;;;;;;;4.76;4.40;;;;;;;5.71;74.52;101617.49;462912;114;922996;-76
2022/11/27 01:07:09;;;;;;;4.64;4.29;;;;;;;5.72;74.46;101611.08;462602;114;922458;-77
2022/11/27 01:08:12;;;;;;;3.96;3.72;;;;;;;5.74;74.42;101609.05;462789;114;923023;-77
2022/11/27 01:09:16;;;;;;;3.70;3.47;;;;;;;5.72;74.30;101616.49;462842;114;922447;-76
2022/11/27 01:10:19;;;;;;;4.20;3.94;;;;;;;5.72;74.33;101613.79;462736;114;922572;-76
2022/11/27 01:11:25;;;;;;;3.70;3.49;;;;;;;5.73;74.46;101619.02;462830;114;922523;-77
2022/11/27 01:12:29;;;;;;;3.83;3.55;;;;;;;5.75;74.48;101618.87;461061;114;922961;-78
2022/11/27 01:13:35;;;;;;;3.71;3.45;;;;;;;5.76;74.43;101612.45;452723;117;922943;-76
2022/11/27 01:14:38;;;;;;;3.90;3.57;;;;;;;5.77;74.36;101616.86;452531;117;922571;-77
2022/11/27 01:15:41;;;;;;;3.83;3.52;;;;;;;5.77;74.29;101617.72;452651;117;922620;-77
2022/11/27 01:16:45;;;;;;;3.34;3.04;;;;;;;5.77;74.27;101617.72;452549;117;930483;-78
2022/11/27 01:17:48;;;;;;;3.46;3.26;;;;;;;5.77;74.26;101608.74;452686;117;922416;-76
2022/11/27 01:18:54;;;;;;;3.86;3.50;;;;;;;5.79;74.26;101614.83;452697;117;922420;-76
2022/11/27 01:19:58;;;;;;;3.94;3.64;;;;;;;5.78;74.24;101619.42;452534;117;922532;-78
2022/11/27 01:21:02;;;;;;;4.03;3.72;;;;;;;5.79;74.23;101618.39;444340;119;922584;-77
2022/11/27 01:22:05;;;;;;;3.75;3.40;;;;;;;5.78;74.06;101615.86;444732;117;922594;-77
2022/11/27 01:23:08;;;;;;;3.52;3.24;;;;;;;5.78;74.10;101616.72;452637;117;923067;-77
2022/11/27 01:24:13;;;;;;;3.58;3.19;;;;;;;5.78;73.99;101616.72;455721;114;923104;-77
2022/11/27 01:25:17;;;;;;;3.73;3.36;;;;;;;5.78;74.00;101615.86;450699;117;923011;-77
2022/11/27 01:26:20;;;;;;;3.66;3.36;;;;;;;5.78;73.98;101610.45;450904;117;922462;-77
2022/11/27 01:27:24;;;;;;;3.20;2.92;;;;;;;5.77;73.85;101623.13;450791;115;922782;-77
2022/11/27 01:28:27;;;;;;;3.72;3.42;;;;;;;5.76;73.76;101615.16;450915;117;923122;-75
2022/11/27 01:29:30;;;;;;;3.24;3.03;;;;;;;5.75;73.79;101613.45;450840;117;922987;-77
2022/11/27 01:30:38;;;;;;;3.31;3.07;;;;;;;5.75;73.84;101618.87;450942;117;922854;-76
2022/11/27 01:31:41;;;;;;;3.18;2.88;;;;;;;5.75;73.91;101610.75;450676;115;922931;-77
2022/11/27 01:32:44;;;;;;;3.06;2.86;;;;;;;5.75;73.83;101619.72;450915;117;922587;-77
2022/11/27 01:33:53;;;;;;;4.13;3.74;;;;;;;5.76;73.87;101612.45;450972;117;922614;-78
2022/11/27 01:34:56;;;;;;;3.30;3.04;;;;;;;5.75;73.82;101611.60;450791;117;922517;-77
2022/11/27 01:36:02;;;;;;;3.25;2.99;;;;;;;5.74;73.75;101609.90;450909;117;923328;-76
2022/11/27 01:37:06;;;;;;;3.27;2.99;;;;;;;5.75;73.76;101616.16;450708;115;922566;-76
2022/11/27 01:38:09;;;;;;;4.01;3.65;;;;;;;5.74;73.77;101611.75;450800;117;923042;-77
2022/11/27 01:39:18;;;;;;;3.67;3.37;;;;;;;5.74;73.77;101611.75;450937;117;922566;-78
2022/11/27 01:40:22;;;;;;;3.29;3.01;;;;;;;5.74;73.63;101609.05;450735;117;922606;-77
2022/11/27 01:41:28;;;;;;;3.83;3.34;;;;;;;5.73;73.63;101616.31;450837;117;922495;-77
2022/11/27 01:42:32;;;;;;;4.51;4.12;;;;;;;5.72;73.51;101611.08;450740;117;922631;-78
2022/11/27 01:43:43;;;;;;;4.21;3.91;;;;;;;5.71;73.45;101612.08;450914;117;922585;-78
2022/11/27 01:44:50;;;;;;;3.79;3.49;;;;;;;5.70;73.46;101610.38;450117;117;922530;-79
2022/11/27 01:45:53;;;;;;;4.03;3.71;;;;;;;5.69;73.50;101617.64;450700;117;922439;-77
2022/11/27 01:47:02;;;;;;;4.50;4.19;;;;;;;5.69;73.56;101612.23;450794;115;922918;-77
2022/11/27 01:48:08;;;;;;;3.37;3.13;;;;;;;5.70;73.54;101618.49;450728;117;922525;-78
2022/11/27 01:49:14;;;;;;;3.92;3.62;;;;;;;5.69;73.49;101614.94;450764;117;923026;-77
2022/11/27 01:50:21;;;;;;;4.20;3.79;;;;;;;5.71;73.57;101607.52;454430;114;922572;-77
2022/11/27 01:51:24;;;;;;;4.69;4.29;;;;;;;5.72;73.69;101609.23;462670;114;922431;-77
2022/11/27 01:52:31;;;;;;;4.83;4.24;;;;;;;5.74;73.57;101611.75;462727;114;922615;-77
2022/11/27 01:53:34;;;;;;;4.46;4.07;;;;;;;5.73;73.42;101610.90;462617;114;922388;-78
2022/11/27 01:54:44;;;;;;;3.78;3.48;;;;;;;5.71;73.21;101603.96;462823;114;922878;-77
2022/11/27 01:55:51;;;;;;;3.84;3.54;;;;;;;5.67;73.26;101611.56;462551;114;922569;-78
2022/11/27 01:56:57;;;;;;;3.57;3.16;;;;;;;5.66;73.20;101611.70;462569;114;922507;-77
2022/11/27 01:58:07;;;;;;;3.34;3.04;;;;;;;5.65;73.23;101610.00;462626;114;923041;-78
2022/11/27 01:59:11;;;;;;;3.57;3.26;;;;;;;5.64;73.38;101611.00;462928;114;923019;-77
2022/11/27 02:00:16;;;;;;;3.80;3.50;;;;;;;5.63;73.40;101610.16;462773;114;922575;-78
2022/11/27 02:01:23;;;;;;;4.75;4.35;;;;;;;5.65;73.38;101615.41;462644;114;922906;-78
2022/11/27 02:02:25;;;;;;;5.16;4.74;;;;;;;5.64;73.40;101616.41;462621;114;922614;-78
2022/11/27 02:03:29;;;;;;;5.08;4.67;;;;;;;5.63;73.34;101620.13;464051;114;922683;-75
2022/11/27 02:04:32;;;;;;;5.74;5.09;;;;;;;5.62;73.42;101619.30;465545;114;922413;-77
2022/11/27 02:05:35;;;;;;;5.85;5.35;;;;;;;5.62;73.32;101630.13;465605;114;922483;-78
2022/11/27 02:06:38;;;;;;;5.64;5.17;;;;;;;5.63;73.36;101625.53;465463;113;922884;-76
2022/11/27 02:07:42;;;;;;;5.04;4.64;;;;;;;5.64;73.48;101621.83;465569;114;930495;-77
2022/11/27 02:08:46;;;;;;;5.05;4.58;;;;;;;5.65;73.46;101623.53;465518;114;922512;-77
2022/11/27 02:09:49;;;;;;;4.32;3.96;;;;;;;5.65;73.53;101624.38;465677;114;922543;-77
2022/11/27 02:10:55;;;;;;;3.69;3.39;;;;;;;5.67;73.55;101624.23;465557;114;922823;-77
2022/11/27 02:12:05;;;;;;;3.67;3.39;;;;;;;5.68;73.61;101623.23;465352;114;922761;-77
2022/11/27 02:13:12;;;;;;;2.98;2.78;;;;;;;5.68;73.53;101620.53;465366;114;922535;-77
2022/11/27 02:14:34;;;;;;;3.02;2.73;;;;;;;5.68;73.48;101617.83;465420;114;923011;-77
2022/11/27 02:16:02;;;;;;;3.23;2.92;;;;;;;5.68;73.31;101623.23;465350;114;922903;-77
2022/11/27 02:17:18;;;;;;;2.73;2.56;;;;;;;5.67;73.38;101622.38;465113;114;923037;-78
2022/11/27 02:18:25;;;;;;;3.10;2.81;;;;;;;5.67;73.37;101627.80;465385;114;923011;-77
2022/11/27 02:19:31;;;;;;;4.18;3.71;;;;;;;5.67;73.43;101635.06;465091;114;922803;-77
2022/11/27 02:21:07;;;;;;;4.14;3.75;;;;;;;5.67;73.46;101632.35;465348;114;922902;-77
2022/11/27 02:22:39;;;;;;;4.64;4.24;;;;;;;5.66;73.37;101625.23;465307;114;922970;-76
2022/11/27 02:24:12;;;;;;;5.06;4.64;;;;;;;5.65;73.28;101628.94;464605;114;922848;-77
2022/11/27 02:25:47;;;;;;;5.48;4.98;;;;;;;5.63;73.38;101622.83;455179;116;922479;-80
2022/11/27 02:27:06;;;;;;;5.66;5.16;;;;;;;5.62;73.37;101631.98;455116;114;922473;-78
2022/11/27 02:28:29;;;;;;;6.16;5.57;;;;;;;5.59;73.32;101640.39;455126;116;923167;-76
2022/11/27 02:29:34;;;;;;;5.99;5.52;;;;;;;5.56;73.16;101635.31;455150;116;922425;-78
2022/11/27 02:30:41;;;;;;;5.56;5.16;;;;;;;5.54;73.19;101630.05;455169;116;922582;-78
2022/11/27 02:32:11;;;;;;;5.07;4.67;;;;;;;5.52;73.39;101623.93;454642;116;922984;-79
2022/11/27 02:33:18;;;;;;;5.09;4.69;;;;;;;5.52;73.37;101625.78;455247;116;922493;-77
2022/11/27 02:34:46;;;;;;;4.36;4.03;;;;;;;5.52;73.33;101636.60;455194;116;922525;-78
2022/11/27 02:36:02;;;;;;;4.16;3.70;;;;;;;5.51;73.29;101629.52;455188;116;922980;-77
2022/11/27 02:37:18;;;;;;;4.40;4.00;;;;;;;5.48;73.19;101633.37;454912;116;922430;-77
2022/11/27 02:38:24;;;;;;;3.72;3.44;;;;;;;5.48;73.25;101641.48;454994;116;922593;-77
2022/11/27 02:39:56;;;;;;;3.34;3.14;;;;;;;5.57;73.25;101632.42;482548;110;946862;-76
2022/11/27 02:41:03;;;;;;;3.09;2.89;;;;;;;5.45;73.30;101637.25;473859;112;922376;-77
2022/11/27 02:42:10;;;;;;;3.04;2.83;;;;;;;5.43;73.17;101639.25;468925;112;922552;-77
2022/11/27 02:43:19;;;;;;;2.67;2.49;;;;;;;5.43;73.29;101647.37;465322;114;922499;-78
2022/11/27 02:44:26;;;;;;;3.11;2.89;;;;;;;5.42;73.36;101644.81;465474;114;923029;-76
2022/11/27 02:45:42;;;;;;;2.69;2.52;;;;;;;5.43;73.36;101651.92;465507;114;923376;-77
2022/11/27 02:46:46;;;;;;;2.77;2.49;;;;;;;5.45;73.40;101647.22;465476;113;922614;-76
2022/11/27 02:47:50;;;;;;;2.53;2.24;;;;;;;5.45;73.34;101644.52;465540;114;922443;-76
2022/11/27 02:48:57;;;;;;;2.64;2.41;;;;;;;5.45;73.31;101642.66;465582;114;922491;-76
2022/11/27 02:50:02;;;;;;;2.78;2.58;;;;;;;5.46;73.38;101652.45;465000;114;922493;-79
2022/11/27 02:51:06;;;;;;;2.64;2.44;;;;;;;5.48;73.43;101651.45;465569;114;922640;-80
2022/11/27 02:52:12;;;;;;;2.87;2.67;;;;;;;5.48;73.30;101656.86;465602;113;922551;-77
2022/11/27 02:53:22;;;;;;;2.79;2.56;;;;;;;5.49;73.45;101655.86;465570;114;922814;-77
2022/11/27 02:54:28;;;;;;;5.65;5.13;;;;;;;5.51;73.54;101652.02;465412;114;922524;-76
2022/11/27 02:55:35;;;;;;;10.93;7.07;;;;;;;5.53;73.44;101657.24;465523;114;922603;-76
2022/11/27 02:56:40;;;;;;;9.94;8.23;;;;;;;5.53;73.41;101654.54;465473;113;922521;-77
2022/11/27 02:57:46;;;;;;;8.40;7.55;;;;;;;5.53;73.33;101652.69;465069;112;922409;-77
2022/11/27 02:58:51;;;;;;;7.92;6.72;;;;;;;5.54;73.43;101657.09;465107;114;923184;-77
2022/11/27 02:59:56;;;;;;;8.80;7.71;;;;;;;5.55;73.34;101650.69;465059;114;922441;-77
2022/11/27 03:01:02;;;;;;;7.17;6.47;;;;;;;5.57;73.41;101654.06;465108;114;922379;-77
2022/11/27 03:02:08;;;;;;;7.13;6.28;;;;;;;5.58;73.36;101652.21;465044;114;922500;-77
2022/11/27 03:03:15;;;;;;;7.12;6.43;;;;;;;5.58;73.40;101650.36;465073;114;923006;-77
2022/11/27 03:04:22;;;;;;;7.28;6.49;;;;;;;5.60;73.29;101659.18;465032;114;922618;-77
2022/11/27 03:05:29;;;;;;;5.48;4.85;;;;;;;5.61;73.38;101650.06;464937;114;922634;-77
2022/11/27 03:06:44;;;;;;;6.46;4.49;;;;;;;5.61;73.29;101652.77;465061;114;922586;-77
2022/11/27 03:07:54;;;;;;;3.92;3.52;;;;;;;5.62;73.31;101643.66;465033;114;922577;-76
2022/11/27 03:09:07;;;;;;;3.64;3.12;;;;;;;5.62;73.13;101654.47;465103;114;922593;-76
2022/11/27 03:10:20;;;;;;;3.39;3.09;;;;;;;5.61;73.08;101654.63;465092;114;922476;-78
2022/11/27 03:11:23;;;;;;;3.09;2.84;;;;;;;5.58;73.06;101644.95;464689;114;922513;-77
2022/11/27 03:12:27;;;;;;;3.21;2.89;;;;;;;5.57;73.16;101650.54;465191;114;922722;-76
2022/11/27 03:13:34;;;;;;;2.61;2.41;;;;;;;5.56;73.05;101646.98;465556;114;930660;-76
2022/11/27 03:14:40;;;;;;;2.83;2.63;;;;;;;5.56;73.02;101638.02;465442;114;930251;-77
2022/11/27 03:16:11;;;;;;;2.49;2.29;;;;;;;5.56;73.07;101648.83;465499;114;922933;-77
2022/11/27 03:17:24;;;;;;;2.94;2.64;;;;;;;5.57;73.20;101653.24;465634;112;922594;-74
2022/11/27 03:18:56;;;;;;;2.44;2.08;;;;;;;5.57;73.25;101647.83;465498;114;922475;-76
2022/11/27 03:20:12;;;;;;;3.54;2.93;;;;;;;5.58;73.28;101654.92;465493;114;922598;-76
2022/11/27 03:21:21;;;;;;;2.89;2.68;;;;;;;5.57;73.34;101651.36;465516;114;923288;-78
2022/11/27 03:22:30;;;;;;;2.89;2.69;;;;;;;5.59;73.46;101651.21;465495;114;922625;-76
2022/11/27 03:23:32;;;;;;;2.56;2.36;;;;;;;5.60;73.44;101652.92;465504;114;922875;-77
2022/11/27 03:24:36;;;;;;;2.69;2.49;;;;;;;5.61;73.50;101663.59;455887;114;923455;-77
2022/11/27 03:25:39;;;;;;;3.01;2.77;;;;;;;5.62;73.45;101659.03;455486;116;922643;-77
2022/11/27 03:26:42;;;;;;;3.27;2.97;;;;;;;5.63;73.42;101658.00;455461;116;922497;-78
2022/11/27 03:27:55;;;;;;;3.79;3.49;;;;;;;5.63;73.41;101663.41;455381;116;923094;-77
2022/11/27 03:29:09;;;;;;;5.85;4.02;;;;;;;5.76;73.50;101666.58;477166;110;946844;-76
2022/11/27 03:30:13;;;;;;;4.93;4.23;;;;;;;5.65;73.34;101672.23;465503;114;922461;-76
2022/11/27 03:31:16;;;;;;;3.84;3.49;;;;;;;5.65;73.31;101667.67;465610;114;922506;-76
2022/11/27 03:32:20;;;;;;;4.54;4.14;;;;;;;5.65;73.38;101670.38;470420;112;922514;-77
2022/11/27 03:33:24;;;;;;;4.64;3.61;;;;;;;5.67;73.27;101672.94;471520;112;922453;-77
2022/11/27 03:34:28;;;;;;;5.95;4.71;;;;;;;5.66;73.14;101668.53;471613;112;922693;-76
2022/11/27 03:35:31;;;;;;;4.31;3.96;;;;;;;5.66;73.14;101668.53;471543;112;922441;-77
2022/11/27 03:36:34;;;;;;;4.42;4.03;;;;;;;5.67;73.19;101668.38;471628;112;922585;-77
2022/11/27 03:37:37;;;;;;;5.48;3.66;;;;;;;5.68;73.25;101671.94;471599;112;922676;-77
2022/11/27 03:38:42;;;;;;;4.13;3.72;;;;;;;5.68;73.18;101670.05;471624;112;923210;-77
2022/11/27 03:39:45;;;;;;;4.28;3.87;;;;;;;5.68;73.09;101671.94;471506;112;923245;-76
2022/11/27 03:40:52;;;;;;;3.97;3.62;;;;;;;5.69;73.07;101668.20;471618;112;922893;-77
2022/11/27 03:42:31;;;;;;;3.56;3.26;;;;;;;5.68;73.06;101672.76;470236;112;922524;-77
2022/11/27 03:43:41;;;;;;;3.01;2.71;;;;;;;5.67;73.02;101673.80;463178;114;922549;-77
2022/11/27 03:45:04;;;;;;;3.18;2.87;;;;;;;5.69;73.05;101676.31;462977;114;922545;-77
2022/11/27 03:46:11;;;;;;;2.87;2.67;;;;;;;5.67;73.10;101675.64;463217;114;922509;-76
2022/11/27 03:47:51;;;;;;;3.30;3.01;;;;;;;5.67;73.06;101670.23;463054;114;922774;-77
2022/11/27 03:49:24;;;;;;;2.61;2.41;;;;;;;5.67;73.12;101675.64;463140;114;922583;-77
2022/11/27 03:50:56;;;;;;;3.72;2.82;;;;;;;5.65;73.12;101678.50;463206;114;922917;-75
2022/11/27 03:52:05;;;;;;;3.10;2.88;;;;;;;5.64;73.16;101681.34;463172;114;922776;-75
2022/11/27 03:53:15;;;;;;;2.75;2.55;;;;;;;5.61;73.13;101676.27;462801;114;922481;-77
2022/11/27 03:54:34;;;;;;;2.64;2.44;;;;;;;5.61;73.19;101674.41;463087;114;922608;-77
2022/11/27 03:55:50;;;;;;;2.83;2.52;;;;;;;5.62;73.37;101677.97;463171;114;922600;-76
2022/11/27 03:57:18;;;;;;;3.36;2.92;;;;;;;5.72;73.41;101679.58;492043;107;924271;-78
2022/11/27 03:58:34;;;;;;;3.76;2.97;;;;;;;5.62;73.33;101683.38;475437;111;922621;-76
2022/11/27 03:59:41;;;;;;;3.88;3.58;;;;;;;5.62;73.37;101678.83;475444;111;922528;-76
2022/11/27 04:00:47;;;;;;;3.88;3.53;;;;;;;5.61;73.38;101673.56;475467;111;922915;-78
2022/11/27 04:01:50;;;;;;;3.77;3.39;;;;;;;5.62;73.48;101680.67;475385;111;922515;-76
2022/11/27 04:02:53;;;;;;;3.91;3.58;;;;;;;5.63;73.35;101675.09;475656;111;923016;-77
2022/11/27 04:03:56;;;;;;;3.73;3.43;;;;;;;5.65;73.36;101677.64;475671;111;922605;-76
2022/11/27 04:05:00;;;;;;;2.88;2.66;;;;;;;5.64;73.32;101676.80;475671;111;922477;-77
2022/11/27 04:06:03;;;;;;;3.74;2.84;;;;;;;5.65;73.21;101677.64;475629;111;922636;-77
2022/11/27 04:07:06;;;;;;;3.38;3.08;;;;;;;5.64;73.12;101675.94;475516;111;922942;-80
2022/11/27 04:08:09;;;;;;;3.32;3.03;;;;;;;5.62;73.17;101676.12;475672;111;922539;-76
2022/11/27 04:09:13;;;;;;;3.29;3.04;;;;;;;5.61;73.10;101677.12;475635;111;922688;-76
2022/11/27 04:10:16;;;;;;;3.36;3.11;;;;;;;5.61;73.11;101679.83;475623;111;922770;-77
2022/11/27 04:11:19;;;;;;;3.04;2.71;;;;;;;5.61;73.10;101676.27;475699;111;922545;-78
2022/11/27 04:12:22;;;;;;;3.74;3.41;;;;;;;5.60;73.04;101677.27;475609;111;922903;-78
2022/11/27 04:13:25;;;;;;;2.76;2.56;;;;;;;5.58;73.08;101680.12;475590;111;922484;-77
2022/11/27 04:14:28;;;;;;;2.47;2.27;;;;;;;5.59;73.15;101678.27;475698;111;922494;-75
2022/11/27 04:15:32;;;;;;;3.08;2.78;;;;;;;5.59;73.33;101678.27;475708;111;922492;-76
2022/11/27 04:16:35;;;;;;;2.81;2.61;;;;;;;5.60;73.30;101678.12;475650;111;922936;-79
2022/11/27 04:17:38;;;;;;;3.47;2.39;;;;;;;5.60;73.39;101678.12;475630;111;922401;-78
2022/11/27 04:18:41;;;;;;;3.09;2.31;;;;;;;5.59;73.36;101679.12;475683;111;922794;-78
2022/11/27 04:19:44;;;;;;;3.72;2.72;;;;;;;5.60;73.38;101680.83;475695;111;922793;-78
2022/11/27 04:20:47;;;;;;;2.72;2.52;;;;;;;5.61;73.53;101677.12;475689;111;922503;-77
2022/11/27 04:21:52;;;;;;;2.75;2.55;;;;;;;5.61;73.59;101671.70;475574;111;922490;-76
2022/11/27 04:22:55;;;;;;;3.49;2.77;;;;;;;5.62;73.47;101677.97;475665;111;922921;-75
2022/11/27 04:23:58;;;;;;;3.28;2.96;;;;;;;5.62;73.50;101680.67;475681;111;922543;-77
2022/11/27 04:25:01;;;;;;;3.22;2.97;;;;;;;5.62;73.54;101686.94;475679;111;922531;-77
2022/11/27 04:26:04;;;;;;;3.41;2.83;;;;;;;5.60;73.51;101680.83;475638;111;922489;-77
2022/11/27 04:27:08;;;;;;;5.49;3.31;;;;;;;5.61;73.52;101678.97;475479;111;922380;-77
2022/11/27 04:28:11;;;;;;;4.26;3.23;;;;;;;5.61;73.67;101677.12;475663;111;922765;-77
2022/11/27 04:29:14;;;;;;;4.49;4.14;;;;;;;5.61;73.68;101679.83;475675;111;922535;-78
2022/11/27 04:30:17;;;;;;;4.22;3.83;;;;;;;5.62;73.80;101678.83;475633;111;922531;-76
2022/11/27 04:31:20;;;;;;;4.16;3.31;;;;;;;5.63;73.82;101679.64;475587;111;922590;-75
2022/11/27 04:32:24;;;;;;;4.04;3.75;;;;;;;5.62;73.83;101680.67;475671;111;922957;-75
2022/11/27 04:33:27;;;;;;;4.36;3.77;;;;;;;5.63;73.78;101685.05;475516;111;923090;-77
2022/11/27 04:34:31;;;;;;;4.71;4.30;;;;;;;5.62;73.75;101686.09;475535;111;922768;-77
2022/11/27 04:35:34;;;;;;;4.49;4.15;;;;;;;5.61;73.91;101689.80;475584;111;925515;-77
2022/11/27 04:36:37;;;;;;;4.68;4.24;;;;;;;5.61;73.88;101685.23;475599;111;922438;-76
2022/11/27 04:37:42;;;;;;;4.94;4.51;;;;;;;5.62;73.91;101688.80;475460;111;922758;-75
2022/11/27 04:38:45;;;;;;;4.89;4.49;;;;;;;5.63;74.00;101687.77;475903;109;922853;-76
2022/11/27 04:39:48;;;;;;;4.33;3.91;;;;;;;5.64;74.08;101692.17;484373;109;922872;-76
2022/11/27 04:40:56;;;;;;;5.22;4.83;;;;;;;5.65;74.13;101686.61;484285;109;922643;-76
2022/11/27 04:41:59;;;;;;;4.10;3.80;;;;;;;5.65;74.13;101686.61;484135;109;922833;-76
2022/11/27 04:43:03;;;;;;;4.54;3.65;;;;;;;5.66;74.19;101682.91;484365;109;923403;-77
2022/11/27 04:44:06;;;;;;;3.86;3.51;;;;;;;5.67;74.33;101690.02;484312;109;922591;-75
2022/11/27 04:45:10;;;;;;;4.08;3.51;;;;;;;5.69;74.26;101689.84;484395;109;922544;-76
2022/11/27 04:46:13;;;;;;;3.72;3.42;;;;;;;5.69;74.24;101690.70;484306;109;922998;-76
2022/11/27 04:47:16;;;;;;;3.16;2.90;;;;;;;5.69;74.22;101692.55;484305;109;922407;-77
2022/11/27 04:48:19;;;;;;;3.22;2.91;;;;;;;5.70;74.28;101697.81;484409;109;922449;-78
2022/11/27 04:49:22;;;;;;;4.52;3.15;;;;;;;5.70;74.43;101695.11;484367;109;922806;-76
2022/11/27 04:50:26;;;;;;;3.23;2.96;;;;;;;5.71;74.31;101696.81;484389;109;922438;-78
2022/11/27 04:51:29;;;;;;;3.83;3.29;;;;;;;5.71;74.23;101695.96;484249;109;923187;-78
2022/11/27 04:52:32;;;;;;;2.92;2.72;;;;;;;5.70;74.31;101694.26;484273;109;930494;-77
2022/11/27 04:53:36;;;;;;;2.76;2.56;;;;;;;5.70;74.24;101694.26;484361;109;923019;-77
2022/11/27 04:54:39;;;;;;;2.58;2.38;;;;;;;5.68;74.30;101694.41;484323;109;922949;-77
2022/11/27 04:55:43;;;;;;;2.94;2.71;;;;;;;5.67;74.19;101700.00;484288;109;922462;-77
2022/11/27 04:56:46;;;;;;;2.92;2.63;;;;;;;5.64;74.33;101698.44;482378;109;922585;-77
2022/11/27 04:57:49;;;;;;;3.32;3.03;;;;;;;5.65;74.35;101693.88;467727;113;922972;-77
2022/11/27 04:58:53;;;;;;;2.98;2.72;;;;;;;5.64;74.39;101697.58;467740;113;923054;-77
2022/11/27 04:59:56;;;;;;;3.29;2.98;;;;;;;5.63;74.46;101699.44;467707;113;922508;-78
2022/11/27 05:00:59;;;;;;;2.94;2.73;;;;;;;5.63;74.45;101696.73;467783;113;922569;-77
2022/11/27 05:02:02;;;;;;;4.87;2.88;;;;;;;5.63;74.52;101696.73;467681;113;923261;-77
2022/11/27 05:03:06;;;;;;;2.72;2.52;;;;;;;5.62;74.56;101697.77;467744;113;922865;-76
2022/11/27 05:04:10;;;;;;;3.16;2.82;;;;;;;5.63;74.58;101703.99;467658;113;923263;-77
2022/11/27 05:05:13;;;;;;;2.75;2.55;;;;;;;5.62;74.61;101699.61;467741;113;922985;-79
2022/11/27 05:06:16;;;;;;;2.77;2.57;;;;;;;5.62;74.67;101705.02;467756;113;922984;-77
2022/11/27 05:07:19;;;;;;;2.72;2.52;;;;;;;5.62;74.71;101705.02;467634;113;922562;-77
2022/11/27 05:08:23;;;;;;;2.52;2.35;;;;;;;5.62;74.78;101702.32;467548;113;923990;-77
2022/11/27 05:09:27;;;;;;;2.08;1.95;;;;;;;5.61;74.80;101698.77;467543;113;922496;-77